sensor_id;sensor_type;location;lat;lon;timestamp;pressure;altitude;pressure_sealevel;temperature;humidity
10806;BME280;5455;53.224;6.000;2023-06-22T00:04:54;101998.78;;;17.14;100.00
10806;BME280;5455;53.224;6.000;2023-06-22T00:07:21;101990.03;;;17.16;100.00
10806;BME280;5455;53.224;6.000;2023-06-22T00:09:48;101989.25;;;17.15;100.00
10806;BME280;5455;53.224;6.000;2023-06-22T00:12:15;101990.78;;;17.13;100.00
10806;BME280;5455;53.224;6.000;2023-06-22T00:14:44;101992.75;;;17.08;100.00
10806;BME280;5455;53.224;6.000;2023-06-22T00:17:11;101997.09;;;17.06;100.00
10806;BME280;5455;53.224;6.000;2023-06-22T00:19:38;101989.84;;;17.01;100.00
10806;BME280;5455;53.224;6.000;2023-06-22T00:22:07;101997.78;;;16.99;100.00
10806;BME280;5455;53.224;6.000;2023-06-22T00:24:34;102003.34;;;16.99;100.00
10806;BME280;5455;53.224;6.000;2023-06-22T00:27:01;101995.00;;;16.99;100.00
10806;BME280;5455;53.224;6.000;2023-06-22T00:29:28;102003.78;;;17.01;100.00
10806;BME280;5455;53.224;6.000;2023-06-22T00:31:55;102008.53;;;17.01;100.00
10806;BME280;5455;53.224;6.000;2023-06-22T00:34:22;102008.53;;;17.01;100.00
10806;BME280;5455;53.224;6.000;2023-06-22T00:36:49;102016.91;;;17.01;100.00
10806;BME280;5455;53.224;6.000;2023-06-22T00:39:18;102024.84;;;16.99;100.00
10806;BME280;5455;53.224;6.000;2023-06-22T00:41:45;102020.44;;;16.98;100.00
10806;BME280;5455;53.224;6.000;2023-06-22T00:44:12;102025.59;;;16.96;100.00
10806;BME280;5455;53.224;6.000;2023-06-22T00:46:39;102027.50;;;16.92;100.00
10806;BME280;5455;53.224;6.000;2023-06-22T00:49:06;102025.41;;;16.85;100.00
10806;BME280;5455;53.224;6.000;2023-06-22T00:51:34;102031.28;;;16.80;100.00
10806;BME280;5455;53.224;6.000;2023-06-22T00:54:05;102041.13;;;16.74;100.00
10806;BME280;5455;53.224;6.000;2023-06-22T00:56:32;102034.34;;;16.72;100.00
10806;BME280;5455;53.224;6.000;2023-06-22T00:59:01;102046.41;;;16.79;100.00
10806;BME280;5455;53.224;6.000;2023-06-22T01:01:30;102041.44;;;16.92;100.00
10806;BME280;5455;53.224;6.000;2023-06-22T01:03:57;102039.66;;;17.03;100.00
10806;BME280;5455;53.224;6.000;2023-06-22T01:06:29;102036.94;;;17.10;100.00
10806;BME280;5455;53.224;6.000;2023-06-22T01:09:27;102036.66;;;17.15;100.00
10806;BME280;5455;53.224;6.000;2023-06-22T01:12:02;102029.03;;;17.12;100.00
10806;BME280;5455;53.224;6.000;2023-06-22T01:14:38;102031.31;;;17.06;100.00
10806;BME280;5455;53.224;6.000;2023-06-22T01:17:08;102032.13;;;17.07;100.00
10806;BME280;5455;53.224;6.000;2023-06-22T01:19:48;102035.38;;;17.09;100.00
10806;BME280;5455;53.224;6.000;2023-06-22T01:22:21;102028.97;;;17.08;100.00
10806;BME280;5455;53.224;6.000;2023-06-22T01:25:00;102029.78;;;17.09;100.00
10806;BME280;5455;53.224;6.000;2023-06-22T01:30:45;102025.25;;;17.01;100.00
10806;BME280;5455;53.224;6.000;2023-06-22T01:33:13;102018.03;;;16.96;100.00
10806;BME280;5455;53.224;6.000;2023-06-22T01:35:41;102014.31;;;16.89;100.00
10806;BME280;5455;53.224;6.000;2023-06-22T01:38:09;102012.28;;;16.86;100.00
10806;BME280;5455;53.224;6.000;2023-06-22T01:40:36;102009.00;;;16.80;100.00
10806;BME280;5455;53.224;6.000;2023-06-22T01:43:04;102002.19;;;16.78;100.00
10806;BME280;5455;53.224;6.000;2023-06-22T01:45:35;102002.47;;;16.69;100.00
10806;BME280;5455;53.224;6.000;2023-06-22T01:48:02;102004.69;;;16.60;100.00
10806;BME280;5455;53.224;6.000;2023-06-22T01:50:29;101994.31;;;16.57;100.00
10806;BME280;5455;53.224;6.000;2023-06-22T01:52:57;102007.81;;;16.55;100.00
10806;BME280;5455;53.224;6.000;2023-06-22T01:55:25;102000.94;;;16.52;100.00
10806;BME280;5455;53.224;6.000;2023-06-22T01:57:52;101997.31;;;16.48;100.00
10806;BME280;5455;53.224;6.000;2023-06-22T02:00:21;102000.44;;;16.47;100.00
10806;BME280;5455;53.224;6.000;2023-06-22T02:05:24;102000.69;;;16.38;100.00
10806;BME280;5455;53.224;6.000;2023-06-22T02:08:00;102007.00;;;16.35;100.00
10806;BME280;5455;53.224;6.000;2023-06-22T02:10:31;102009.44;;;16.37;100.00
10806;BME280;5455;53.224;6.000;2023-06-22T02:13:00;102005.84;;;16.36;100.00
10806;BME280;5455;53.224;6.000;2023-06-22T02:15:28;102015.34;;;16.35;100.00
10806;BME280;5455;53.224;6.000;2023-06-22T02:17:55;102002.97;;;16.33;100.00
10806;BME280;5455;53.224;6.000;2023-06-22T02:20:23;101997.72;;;16.28;100.00
10806;BME280;5455;53.224;6.000;2023-06-22T02:22:50;101992.84;;;16.21;100.00
10806;BME280;5455;53.224;6.000;2023-06-22T02:25:17;101991.47;;;16.12;100.00
10806;BME280;5455;53.224;6.000;2023-06-22T02:27:45;101988.03;;;15.99;100.00
10806;BME280;5455;53.224;6.000;2023-06-22T02:30:13;101997.91;;;15.96;100.00
10806;BME280;5455;53.224;6.000;2023-06-22T02:32:42;101989.97;;;15.95;100.00
10806;BME280;5455;53.224;6.000;2023-06-22T02:35:10;101986.78;;;15.96;100.00
10806;BME280;5455;53.224;6.000;2023-06-22T02:37:38;101985.47;;;15.90;100.00
10806;BME280;5455;53.224;6.000;2023-06-22T02:40:08;101982.28;;;15.88;100.00
10806;BME280;5455;53.224;6.000;2023-06-22T02:42:36;101987.91;;;15.92;100.00
10806;BME280;5455;53.224;6.000;2023-06-22T02:45:04;101995.56;;;15.98;100.00
10806;BME280;5455;53.224;6.000;2023-06-22T02:47:31;101994.81;;;16.02;100.00
10806;BME280;5455;53.224;6.000;2023-06-22T02:49:59;101999.88;;;15.96;100.00
10806;BME280;5455;53.224;6.000;2023-06-22T02:52:28;101995.38;;;15.88;100.00
10806;BME280;5455;53.224;6.000;2023-06-22T02:54:56;101994.47;;;15.84;100.00
10806;BME280;5455;53.224;6.000;2023-06-22T02:57:23;101993.31;;;15.85;100.00
10806;BME280;5455;53.224;6.000;2023-06-22T02:59:50;101994.47;;;15.84;100.00
10806;BME280;5455;53.224;6.000;2023-06-22T03:02:17;101995.13;;;15.77;100.00
10806;BME280;5455;53.224;6.000;2023-06-22T03:04:47;101999.75;;;15.70;100.00
10806;BME280;5455;53.224;6.000;2023-06-22T03:07:15;102003.69;;;15.69;100.00
10806;BME280;5455;53.224;6.000;2023-06-22T03:09:45;102016.16;;;15.75;100.00
10806;BME280;5455;53.224;6.000;2023-06-22T03:12:12;102012.28;;;15.79;100.00
10806;BME280;5455;53.224;6.000;2023-06-22T03:14:51;102013.53;;;15.82;100.00
10806;BME280;5455;53.224;6.000;2023-06-22T03:17:18;102005.09;;;15.78;100.00
10806;BME280;5455;53.224;6.000;2023-06-22T03:19:45;102008.63;;;15.75;100.00
10806;BME280;5455;53.224;6.000;2023-06-22T03:22:12;102005.31;;;15.70;100.00
10806;BME280;5455;53.224;6.000;2023-06-22T03:24:41;102003.13;;;15.60;100.00
10806;BME280;5455;53.224;6.000;2023-06-22T03:27:09;101999.09;;;15.57;100.00
10806;BME280;5455;53.224;6.000;2023-06-22T03:29:37;101994.78;;;15.60;100.00
10806;BME280;5455;53.224;6.000;2023-06-22T03:32:05;102000.19;;;15.53;100.00
10806;BME280;5455;53.224;6.000;2023-06-22T03:34:33;102003.16;;;15.44;100.00
10806;BME280;5455;53.224;6.000;2023-06-22T03:37:00;102001.47;;;15.39;100.00
10806;BME280;5455;53.224;6.000;2023-06-22T03:39:27;102009.38;;;15.37;100.00
10806;BME280;5455;53.224;6.000;2023-06-22T03:41:54;102004.66;;;15.41;100.00
10806;BME280;5455;53.224;6.000;2023-06-22T03:44:22;102005.56;;;15.45;100.00
10806;BME280;5455;53.224;6.000;2023-06-22T03:46:49;102010.09;;;15.50;100.00
10806;BME280;5455;53.224;6.000;2023-06-22T03:49:18;102001.63;;;15.47;100.00
10806;BME280;5455;53.224;6.000;2023-06-22T03:51:45;102003.94;;;15.44;100.00
10806;BME280;5455;53.224;6.000;2023-06-22T03:54:12;101998.38;;;15.44;100.00
10806;BME280;5455;53.224;6.000;2023-06-22T03:56:39;101982.53;;;15.45;100.00
10806;BME280;5455;53.224;6.000;2023-06-22T03:59:06;101993.28;;;15.47;100.00
10806;BME280;5455;53.224;6.000;2023-06-22T04:01:33;101991.47;;;15.54;100.00
10806;BME280;5455;53.224;6.000;2023-06-22T04:04:00;101987.25;;;15.60;100.00
10806;BME280;5455;53.224;6.000;2023-06-22T04:06:27;101984.47;;;15.60;100.00
10806;BME280;5455;53.224;6.000;2023-06-22T04:08:54;101991.41;;;15.70;100.00
10806;BME280;5455;53.224;6.000;2023-06-22T04:11:21;101989.16;;;15.75;100.00
10806;BME280;5455;53.224;6.000;2023-06-22T04:13:48;101990.53;;;15.85;100.00
10806;BME280;5455;53.224;6.000;2023-06-22T04:16:15;101990.72;;;15.95;100.00
10806;BME280;5455;53.224;6.000;2023-06-22T04:18:42;101996.53;;;16.06;100.00
10806;BME280;5455;53.224;6.000;2023-06-22T04:21:10;101992.63;;;16.11;100.00
10806;BME280;5455;53.224;6.000;2023-06-22T04:23:37;102005.50;;;16.19;100.00
10806;BME280;5455;53.224;6.000;2023-06-22T04:26:04;101998.75;;;16.20;100.00
10806;BME280;5455;53.224;6.000;2023-06-22T04:28:31;101994.88;;;16.24;100.00
10806;BME280;5455;53.224;6.000;2023-06-22T04:31:02;101993.81;;;16.32;100.00
10806;BME280;5455;53.224;6.000;2023-06-22T04:33:29;101996.38;;;16.41;100.00
10806;BME280;5455;53.224;6.000;2023-06-22T04:35:56;101996.13;;;16.49;100.00
10806;BME280;5455;53.224;6.000;2023-06-22T04:38:30;101984.78;;;16.58;100.00
10806;BME280;5455;53.224;6.000;2023-06-22T04:41:00;101984.88;;;16.65;100.00
10806;BME280;5455;53.224;6.000;2023-06-22T04:43:30;101980.06;;;16.62;100.00
10806;BME280;5455;53.224;6.000;2023-06-22T04:45:57;101974.13;;;16.64;100.00
10806;BME280;5455;53.224;6.000;2023-06-22T04:48:30;101972.69;;;16.73;100.00
10806;BME280;5455;53.224;6.000;2023-06-22T04:51:01;101975.56;;;16.80;100.00
10806;BME280;5455;53.224;6.000;2023-06-22T04:53:31;101968.91;;;16.85;100.00
10806;BME280;5455;53.224;6.000;2023-06-22T04:55:58;101965.44;;;16.95;100.00
10806;BME280;5455;53.224;6.000;2023-06-22T04:58:25;101975.84;;;16.98;100.00
10806;BME280;5455;53.224;6.000;2023-06-22T05:00:55;101972.75;;;17.03;100.00
10806;BME280;5455;53.224;6.000;2023-06-22T05:03:25;101972.91;;;17.14;100.00
10806;BME280;5455;53.224;6.000;2023-06-22T05:05:53;101969.34;;;17.17;100.00
10806;BME280;5455;53.224;6.000;2023-06-22T05:08:20;101963.78;;;17.17;100.00
10806;BME280;5455;53.224;6.000;2023-06-22T05:10:47;101975.63;;;17.36;100.00
10806;BME280;5455;53.224;6.000;2023-06-22T05:13:20;101981.34;;;17.47;100.00
10806;BME280;5455;53.224;6.000;2023-06-22T05:15:48;101979.09;;;17.56;100.00
10806;BME280;5455;53.224;6.000;2023-06-22T05:18:15;101982.41;;;17.65;100.00
10806;BME280;5455;53.224;6.000;2023-06-22T05:20:42;101994.00;;;17.71;100.00
10806;BME280;5455;53.224;6.000;2023-06-22T05:23:09;101999.91;;;17.95;100.00
10806;BME280;5455;53.224;6.000;2023-06-22T05:25:37;101991.69;;;18.09;100.00
10806;BME280;5455;53.224;6.000;2023-06-22T05:28:04;101989.25;;;18.04;100.00
10806;BME280;5455;53.224;6.000;2023-06-22T05:30:38;101997.31;;;18.13;100.00
10806;BME280;5455;53.224;6.000;2023-06-22T05:33:05;101990.19;;;18.19;100.00
10806;BME280;5455;53.224;6.000;2023-06-22T05:35:32;101991.09;;;18.30;100.00
10806;BME280;5455;53.224;6.000;2023-06-22T05:37:59;101984.75;;;18.33;100.00
10806;BME280;5455;53.224;6.000;2023-06-22T05:40:26;101990.44;;;18.44;100.00
10806;BME280;5455;53.224;6.000;2023-06-22T05:42:54;101989.28;;;18.48;100.00
10806;BME280;5455;53.224;6.000;2023-06-22T05:45:21;101988.97;;;18.57;100.00
10806;BME280;5455;53.224;6.000;2023-06-22T05:47:48;101980.66;;;18.64;100.00
10806;BME280;5455;53.224;6.000;2023-06-22T05:50:15;101981.13;;;18.73;100.00
10806;BME280;5455;53.224;6.000;2023-06-22T05:52:42;101987.97;;;18.79;100.00
10806;BME280;5455;53.224;6.000;2023-06-22T05:55:09;101990.78;;;18.79;100.00
10806;BME280;5455;53.224;6.000;2023-06-22T05:57:36;101987.53;;;18.74;100.00
10806;BME280;5455;53.224;6.000;2023-06-22T06:00:04;101986.84;;;18.87;100.00
10806;BME280;5455;53.224;6.000;2023-06-22T06:02:34;101994.09;;;18.99;100.00
10806;BME280;5455;53.224;6.000;2023-06-22T06:05:02;101999.75;;;19.06;100.00
10806;BME280;5455;53.224;6.000;2023-06-22T06:07:30;101991.81;;;19.15;100.00
10806;BME280;5455;53.224;6.000;2023-06-22T06:09:57;101996.66;;;19.21;100.00
10806;BME280;5455;53.224;6.000;2023-06-22T06:12:24;101999.09;;;19.26;100.00
10806;BME280;5455;53.224;6.000;2023-06-22T06:14:51;101996.31;;;19.30;100.00
10806;BME280;5455;53.224;6.000;2023-06-22T06:17:20;101987.22;;;19.40;100.00
10806;BME280;5455;53.224;6.000;2023-06-22T06:19:47;101990.41;;;19.42;100.00
10806;BME280;5455;53.224;6.000;2023-06-22T06:22:14;101989.59;;;19.42;100.00
10806;BME280;5455;53.224;6.000;2023-06-22T06:24:42;102000.50;;;19.57;100.00
10806;BME280;5455;53.224;6.000;2023-06-22T06:27:09;102008.47;;;19.55;100.00
10806;BME280;5455;53.224;6.000;2023-06-22T06:29:36;102014.13;;;19.66;100.00
10806;BME280;5455;53.224;6.000;2023-06-22T06:32:03;102016.16;;;19.72;100.00
10806;BME280;5455;53.224;6.000;2023-06-22T06:34:30;102026.97;;;19.77;100.00
10806;BME280;5455;53.224;6.000;2023-06-22T06:36:57;102017.78;;;19.84;100.00
10806;BME280;5455;53.224;6.000;2023-06-22T06:39:24;102011.00;;;19.92;100.00
10806;BME280;5455;53.224;6.000;2023-06-22T06:41:52;102007.06;;;19.97;100.00
10806;BME280;5455;53.224;6.000;2023-06-22T06:44:19;102013.84;;;19.96;100.00
10806;BME280;5455;53.224;6.000;2023-06-22T06:46:46;102009.47;;;20.02;100.00
10806;BME280;5455;53.224;6.000;2023-06-22T06:49:13;102010.69;;;20.08;100.00
10806;BME280;5455;53.224;6.000;2023-06-22T06:51:40;102008.31;;;20.20;100.00
10806;BME280;5455;53.224;6.000;2023-06-22T06:54:07;102010.31;;;20.20;100.00
10806;BME280;5455;53.224;6.000;2023-06-22T06:56:34;102019.91;;;20.19;100.00
10806;BME280;5455;53.224;6.000;2023-06-22T06:59:02;102007.91;;;20.18;100.00
10806;BME280;5455;53.224;6.000;2023-06-22T07:01:29;102011.50;;;20.22;100.00
10806;BME280;5455;53.224;6.000;2023-06-22T07:04:00;102011.56;;;20.26;100.00
10806;BME280;5455;53.224;6.000;2023-06-22T07:06:28;102015.97;;;20.34;100.00
10806;BME280;5455;53.224;6.000;2023-06-22T07:08:59;102014.38;;;20.47;100.00
10806;BME280;5455;53.224;6.000;2023-06-22T07:11:26;102011.63;;;20.58;100.00
10806;BME280;5455;53.224;6.000;2023-06-22T07:13:53;102010.81;;;20.61;100.00
10806;BME280;5455;53.224;6.000;2023-06-22T07:16:21;102014.03;;;20.66;100.00
10806;BME280;5455;53.224;6.000;2023-06-22T07:18:47;102017.63;;;20.74;100.00
10806;BME280;5455;53.224;6.000;2023-06-22T07:21:14;102016.81;;;20.80;100.00
10806;BME280;5455;53.224;6.000;2023-06-22T07:23:41;102011.59;;;20.79;100.00
10806;BME280;5455;53.224;6.000;2023-06-22T07:26:09;102007.59;;;20.83;100.00
10806;BME280;5455;53.224;6.000;2023-06-22T07:28:36;102010.00;;;20.85;100.00
10806;BME280;5455;53.224;6.000;2023-06-22T07:31:04;102001.97;;;20.94;100.00
10806;BME280;5455;53.224;6.000;2023-06-22T07:33:31;101989.94;;;21.04;100.00
10806;BME280;5455;53.224;6.000;2023-06-22T07:35:58;101992.38;;;21.13;100.00
10806;BME280;5455;53.224;6.000;2023-06-22T07:38:25;101991.56;;;21.26;100.00
10806;BME280;5455;53.224;6.000;2023-06-22T07:40:52;101994.75;;;21.28;100.00
10806;BME280;5455;53.224;6.000;2023-06-22T07:43:19;101989.91;;;21.36;100.00
10806;BME280;5455;53.224;6.000;2023-06-22T07:45:49;101998.69;;;21.52;100.00
10806;BME280;5455;53.224;6.000;2023-06-22T07:48:20;101989.81;;;21.71;100.00
10806;BME280;5455;53.224;6.000;2023-06-22T07:50:48;101991.78;;;21.74;100.00
10806;BME280;5455;53.224;6.000;2023-06-22T07:53:16;101989.28;;;21.98;100.00
10806;BME280;5455;53.224;6.000;2023-06-22T07:55:42;101991.97;;;22.19;100.00
10806;BME280;5455;53.224;6.000;2023-06-22T07:58:10;101987.91;;;22.27;100.00
10806;BME280;5455;53.224;6.000;2023-06-22T08:00:37;101987.44;;;22.35;100.00
10806;BME280;5455;53.224;6.000;2023-06-22T08:03:04;101981.41;;;22.37;100.00
10806;BME280;5455;53.224;6.000;2023-06-22T08:05:32;101989.97;;;22.23;100.00
10806;BME280;5455;53.224;6.000;2023-06-22T08:07:58;101989.47;;;22.35;100.00
10806;BME280;5455;53.224;6.000;2023-06-22T08:10:25;101985.38;;;22.43;100.00
10806;BME280;5455;53.224;6.000;2023-06-22T08:12:53;101984.44;;;22.60;100.00
10806;BME280;5455;53.224;6.000;2023-06-22T08:15:20;101977.19;;;22.66;100.00
10806;BME280;5455;53.224;6.000;2023-06-22T08:17:47;101981.53;;;22.74;100.00
10806;BME280;5455;53.224;6.000;2023-06-22T08:20:14;101982.25;;;22.85;100.00
10806;BME280;5455;53.224;6.000;2023-06-22T08:22:41;101983.31;;;22.98;100.00
10806;BME280;5455;53.224;6.000;2023-06-22T08:25:10;101983.31;;;22.98;100.00
10806;BME280;5455;53.224;6.000;2023-06-22T08:27:37;101978.31;;;23.17;100.00
10806;BME280;5455;53.224;6.000;2023-06-22T08:30:06;101980.88;;;23.41;100.00
10806;BME280;5455;53.224;6.000;2023-06-22T08:32:34;101991.88;;;23.66;100.00
10806;BME280;5455;53.224;6.000;2023-06-22T08:35:01;101991.03;;;23.69;100.00
10806;BME280;5455;53.224;6.000;2023-06-22T08:37:28;101988.78;;;23.53;100.00
10806;BME280;5455;53.224;6.000;2023-06-22T08:40:04;101992.94;;;23.76;100.00
10806;BME280;5455;53.224;6.000;2023-06-22T08:42:32;101986.75;;;23.88;100.00
10806;BME280;5455;53.224;6.000;2023-06-22T08:45:00;101986.06;;;24.10;100.00
10806;BME280;5455;53.224;6.000;2023-06-22T08:47:27;101994.16;;;24.35;100.00
10806;BME280;5455;53.224;6.000;2023-06-22T08:49:55;101990.09;;;24.63;100.00
10806;BME280;5455;53.224;6.000;2023-06-22T08:52:23;101987.88;;;24.24;100.00
10806;BME280;5455;53.224;6.000;2023-06-22T08:54:50;101990.53;;;24.35;100.00
10806;BME280;5455;53.224;6.000;2023-06-22T08:57:18;101989.84;;;24.27;100.00
10806;BME280;5455;53.224;6.000;2023-06-22T08:59:45;101987.66;;;24.38;100.00
10806;BME280;5455;53.224;6.000;2023-06-22T09:02:12;101986.38;;;24.16;100.00
10806;BME280;5455;53.224;6.000;2023-06-22T09:04:39;101978.97;;;24.26;100.00
10806;BME280;5455;53.224;6.000;2023-06-22T09:07:07;101973.75;;;24.51;100.00
10806;BME280;5455;53.224;6.000;2023-06-22T09:09:34;101970.19;;;24.47;100.00
10806;BME280;5455;53.224;6.000;2023-06-22T09:12:01;101972.91;;;24.77;100.00
10806;BME280;5455;53.224;6.000;2023-06-22T09:14:29;101968.88;;;25.01;100.00
10806;BME280;5455;53.224;6.000;2023-06-22T09:16:56;101975.03;;;25.16;97.76
10806;BME280;5455;53.224;6.000;2023-06-22T09:19:23;101964.41;;;25.23;97.74
10806;BME280;5455;53.224;6.000;2023-06-22T09:21:50;101960.69;;;25.50;93.47
10806;BME280;5455;53.224;6.000;2023-06-22T09:24:17;101953.78;;;25.51;91.71
10806;BME280;5455;53.224;6.000;2023-06-22T09:26:44;101951.53;;;25.42;93.09
10806;BME280;5455;53.224;6.000;2023-06-22T09:29:11;101956.47;;;25.58;89.50
10806;BME280;5455;53.224;6.000;2023-06-22T09:31:38;101955.41;;;25.71;88.31
10806;BME280;5455;53.224;6.000;2023-06-22T09:34:06;101950.97;;;26.06;87.10
10806;BME280;5455;53.224;6.000;2023-06-22T09:36:33;101951.72;;;26.43;81.27
10806;BME280;5455;53.224;6.000;2023-06-22T09:39:00;101956.16;;;26.27;75.62
10806;BME280;5455;53.224;6.000;2023-06-22T09:41:32;101953.81;;;25.87;78.25
10806;BME280;5455;53.224;6.000;2023-06-22T09:43:59;101953.06;;;25.86;79.36
10806;BME280;5455;53.224;6.000;2023-06-22T09:46:26;101959.97;;;26.01;79.95
10806;BME280;5455;53.224;6.000;2023-06-22T09:48:54;101953.22;;;26.15;79.81
10806;BME280;5455;53.224;6.000;2023-06-22T09:51:22;101958.19;;;26.43;78.15
10806;BME280;5455;53.224;6.000;2023-06-22T09:53:51;101958.00;;;26.50;72.33
10806;BME280;5455;53.224;6.000;2023-06-22T09:56:18;101957.72;;;26.45;67.15
10806;BME280;5455;53.224;6.000;2023-06-22T09:58:46;101953.56;;;26.65;69.06
10806;BME280;5455;53.224;6.000;2023-06-22T10:01:13;101960.19;;;26.75;66.65
10806;BME280;5455;53.224;6.000;2023-06-22T10:03:44;101953.75;;;26.74;64.51
10806;BME280;5455;53.224;6.000;2023-06-22T10:06:11;101942.34;;;26.62;67.60
10806;BME280;5455;53.224;6.000;2023-06-22T10:08:39;101949.06;;;26.68;66.50
10806;BME280;5455;53.224;6.000;2023-06-22T10:11:07;101949.84;;;26.68;64.89
10806;BME280;5455;53.224;6.000;2023-06-22T10:13:34;101947.03;;;26.68;67.42
10806;BME280;5455;53.224;6.000;2023-06-22T10:16:01;101949.47;;;26.99;69.75
10806;BME280;5455;53.224;6.000;2023-06-22T10:18:28;101943.13;;;26.95;66.53
10806;BME280;5455;53.224;6.000;2023-06-22T10:20:55;101940.25;;;26.82;70.91
10806;BME280;5455;53.224;6.000;2023-06-22T10:23:22;101934.38;;;26.89;69.97
10806;BME280;5455;53.224;6.000;2023-06-22T10:25:49;101923.09;;;27.02;70.85
10806;BME280;5455;53.224;6.000;2023-06-22T10:28:16;101930.94;;;27.10;65.86
10806;BME280;5455;53.224;6.000;2023-06-22T10:30:43;101923.06;;;27.18;64.76
10806;BME280;5455;53.224;6.000;2023-06-22T10:33:12;101926.88;;;27.11;62.78
10806;BME280;5455;53.224;6.000;2023-06-22T10:35:39;101924.44;;;27.26;64.30
10806;BME280;5455;53.224;6.000;2023-06-22T10:38:06;101926.31;;;27.16;62.75
10806;BME280;5455;53.224;6.000;2023-06-22T10:40:34;101927.63;;;27.28;62.73
10806;BME280;5455;53.224;6.000;2023-06-22T10:43:01;101924.78;;;27.57;63.89
10806;BME280;5455;53.224;6.000;2023-06-22T10:45:28;101924.31;;;27.58;63.57
10806;BME280;5455;53.224;6.000;2023-06-22T10:47:56;101921.59;;;27.26;65.21
10806;BME280;5455;53.224;6.000;2023-06-22T10:50:25;101915.53;;;27.40;65.71
10806;BME280;5455;53.224;6.000;2023-06-22T10:52:52;101919.69;;;27.64;61.96
10806;BME280;5455;53.224;6.000;2023-06-22T10:55:19;101915.53;;;27.40;58.85
10806;BME280;5455;53.224;6.000;2023-06-22T10:57:46;101915.50;;;27.27;60.48
10806;BME280;5455;53.224;6.000;2023-06-22T11:00:14;101916.91;;;27.07;63.48
10806;BME280;5455;53.224;6.000;2023-06-22T11:02:43;101904.41;;;26.59;66.27
10806;BME280;5455;53.224;6.000;2023-06-22T11:05:10;101905.19;;;26.60;66.10
10806;BME280;5455;53.224;6.000;2023-06-22T11:07:42;101908.22;;;26.85;65.14
10806;BME280;5455;53.224;6.000;2023-06-22T11:10:14;101897.13;;;26.91;66.05
10806;BME280;5455;53.224;6.000;2023-06-22T11:12:41;101901.63;;;26.43;66.78
10806;BME280;5455;53.224;6.000;2023-06-22T11:15:09;101898.94;;;26.20;69.39
10806;BME280;5455;53.224;6.000;2023-06-22T11:17:36;101898.16;;;26.36;72.38
10806;BME280;5455;53.224;6.000;2023-06-22T11:20:04;101889.84;;;26.45;72.09
10806;BME280;5455;53.224;6.000;2023-06-22T11:22:38;101897.34;;;26.67;69.44
10806;BME280;5455;53.224;6.000;2023-06-22T11:25:07;101896.94;;;26.37;72.12
10806;BME280;5455;53.224;6.000;2023-06-22T11:27:34;101903.44;;;26.66;71.65
10806;BME280;5455;53.224;6.000;2023-06-22T11:30:01;101898.22;;;26.64;70.20
10806;BME280;5455;53.224;6.000;2023-06-22T11:32:29;101905.72;;;26.71;68.72
10806;BME280;5455;53.224;6.000;2023-06-22T11:34:56;101913.88;;;26.53;67.55
10806;BME280;5455;53.224;6.000;2023-06-22T11:37:23;101898.59;;;26.50;66.42
10806;BME280;5455;53.224;6.000;2023-06-22T11:39:51;101903.06;;;26.80;67.96
10806;BME280;5455;53.224;6.000;2023-06-22T11:42:25;101906.75;;;26.93;65.79
10806;BME280;5455;53.224;6.000;2023-06-22T11:44:52;101907.06;;;26.50;68.87
10806;BME280;5455;53.224;6.000;2023-06-22T11:47:19;101901.50;;;26.63;68.48
10806;BME280;5455;53.224;6.000;2023-06-22T11:49:46;101904.34;;;26.47;67.92
10806;BME280;5455;53.224;6.000;2023-06-22T11:52:13;101900.25;;;26.80;66.76
10806;BME280;5455;53.224;6.000;2023-06-22T11:54:40;101897.16;;;26.10;65.82
10806;BME280;5455;53.224;6.000;2023-06-22T11:57:07;101897.56;;;25.76;67.04
10806;BME280;5455;53.224;6.000;2023-06-22T11:59:34;101892.97;;;25.82;68.50
10806;BME280;5455;53.224;6.000;2023-06-22T12:02:02;101887.88;;;26.09;66.67
10806;BME280;5455;53.224;6.000;2023-06-22T12:04:29;101896.59;;;26.35;66.93
10806;BME280;5455;53.224;6.000;2023-06-22T12:06:56;101888.22;;;25.95;65.57
10806;BME280;5455;53.224;6.000;2023-06-22T12:09:23;101881.13;;;25.87;65.49
10806;BME280;5455;53.224;6.000;2023-06-22T12:11:50;101881.13;;;25.71;66.00
10806;BME280;5455;53.224;6.000;2023-06-22T12:14:17;101884.50;;;25.82;65.35
10806;BME280;5455;53.224;6.000;2023-06-22T12:16:44;101880.09;;;25.97;64.04
10806;BME280;5455;53.224;6.000;2023-06-22T12:19:12;101880.44;;;25.99;63.24
10806;BME280;5455;53.224;6.000;2023-06-22T12:21:39;101880.50;;;25.80;63.53
10806;BME280;5455;53.224;6.000;2023-06-22T12:24:07;101880.72;;;25.89;63.43
10806;BME280;5455;53.224;6.000;2023-06-22T12:26:34;101876.47;;;26.13;63.70
10806;BME280;5455;53.224;6.000;2023-06-22T12:29:01;101872.53;;;26.43;63.05
10806;BME280;5455;53.224;6.000;2023-06-22T12:31:28;101876.47;;;26.61;62.76
10806;BME280;5455;53.224;6.000;2023-06-22T12:33:55;101871.75;;;26.71;61.90
10806;BME280;5455;53.224;6.000;2023-06-22T12:36:22;101866.44;;;26.28;61.09
10806;BME280;5455;53.224;6.000;2023-06-22T12:38:50;101854.31;;;25.95;62.03
10806;BME280;5455;53.224;6.000;2023-06-22T12:41:20;101862.16;;;26.04;62.49
10806;BME280;5455;53.224;6.000;2023-06-22T12:43:47;101858.75;;;26.28;61.78
10806;BME280;5455;53.224;6.000;2023-06-22T12:46:14;101860.53;;;26.22;60.02
10806;BME280;5455;53.224;6.000;2023-06-22T12:48:41;101863.56;;;26.12;61.07
10806;BME280;5455;53.224;6.000;2023-06-22T12:51:09;101862.41;;;25.93;61.64
10806;BME280;5455;53.224;6.000;2023-06-22T12:53:36;101853.44;;;25.98;59.83
10806;BME280;5455;53.224;6.000;2023-06-22T12:56:03;101855.00;;;25.83;58.91
10806;BME280;5455;53.224;6.000;2023-06-22T12:58:30;101847.72;;;25.66;59.91
10806;BME280;5455;53.224;6.000;2023-06-22T13:00:58;101851.53;;;25.75;59.09
10806;BME280;5455;53.224;6.000;2023-06-22T13:03:25;101851.00;;;25.64;59.22
10806;BME280;5455;53.224;6.000;2023-06-22T13:05:54;101856.41;;;25.91;60.11